Aérodrome :
LOGIN :

S'inscrire | Disclaimer

   EN    FR    IT 

 










Légende :    VFR   VFR Marginal   IFR   IFR Intensif   IFR Très Intensif
Visi : 
Plafond : 
>= 8 km
>= 3000ft
5 à 8 km
1000 à 3000 ft
1500m à 5 km
500 à 1000 ft
800 à 1500m
200 à 500 ft
< 800m
< 200 ft
Symboles :   Orages  Brouillard  Fortes neiges  Fortes précipitations  Vent > 20 kt
SIGMETs :   Divers  Orages  Givrage  Turbulence  Onde Orograph.  Cendres Volcan.






- Altitude de l'aérodrome : 80 ft
- Code IATA : LPL


EGGP - Liverpool John Lennon

DERNIER METAR :
  • 261350Z 24003KT 220V280 9999 VCSH FEW020 SCT030CB 17/11 Q1008

METARs EXPIRÉS :
  • 261320Z 23003KT 190V300 9999 SCT030 SCT040CB FEW060TCU 17/11 Q1008
  • 261250Z 22004KT 190V270 9999 SCT030 SCT040CB 17/12 Q1008
  • 261220Z 21004KT 170V260 9999 VCSH FEW017 SCT032 17/13 Q1008
  • 261150Z 20007KT 150V220 9999 -SHRA FEW017 SCT032 BKN040 14/12 Q1009
  • 261120Z 19007KT 9999 VCSH FEW017 BKN032 15/12 Q1009
  • 261050Z 17005KT 120V200 9999 VCSH FEW017 SCT023 BKN027 15/12 Q1009
  • 261020Z 16009KT 9999 -RA BKN014 OVC022 14/11 Q1009
  • 260950Z 16008KT 130V190 9999 SCT015 BKN023 OVC029 14/11 Q1009
  • 260920Z 15008KT 120V180 9999 BKN014 OVC018 14/11 Q1009

TAF TAF EGGP
Valide du 26 à 12h jusqu'au 27 à 12h UTC


261057Z 2612/2712 VRB03KT 9999 BKN030
TEMPO 2612/2619 2000 +SHRA +TSGR BKN012 BKN025CB
BECMG 2614/2617 24010KT
PROB40
TEMPO 2619/2701 3000 +SHRA BKN012 BKN025CB
PROB40
TEMPO 2701/2712 6000 SHRA
PROB30
TEMPO 2701/2703 BKN012
ATIS : +44 151 907 2000 (option 5 or ext 5150)
Météo : +44 871 750 5150



MET'MAP, la Météo Aéronautique d'un coup d'oeil ! - Copyright ORBIFLY Décembre 2007 - Disclaimer

ORBIFLY MET'MAP TEAM :

Programmation & Développement : Alexandra Zaïnal
Sur une idée originale de : Baudouin d'Aumeries
Soutien technique & logistique : Manuel Goepfert
Assistance : Marc-Olivier Méhu




SOURCES & CREDITS :

   NOAA